Terminal Aerodrome Forecast
Issued by NWS Wilmington, OH

Home | Current Version | Previous Version | Text Only | Print | Product List | Glossary On
Versions: 1 2 3 4 5 6 7 8 9 10 11 12 13 14 15 16 17 18 19 20 21 22 23 24 25 26 27 28 29
000
FTUS41 KILN 032210 AAC
TAFCVG
TAF AMD
KCVG 032210Z 0322/0424 24008KT P6SM VCTS BKN050CB
     FM040000 26008KT P6SM BKN050
     FM040100 30005KT P6SM SCT050
     FM041400 23006KT P6SM FEW040
     FM041800 28009KT P6SM SCT040=

USA.gov is the U.S. government's official web portal to all federal, state and local government web resources and services.